Argo Village, New York
Current Conditions -  °F | °C
As of 3:51 PM on Friday 31 Oct 2014 (Local Time) from KJFK Reporting Station
Overcast Overcast  
Wind Chill: 54°   Ceiling: 4600
Heat Index: 54°   Visibility: 10mi
Dew Point: 40°   Wind: 12mph
Humidity: 59%   Direction: 40°NE
Pressure: 29.91"   Gusts: NA
Location:  40.7013°N, 73.7074°W
Report Text: KJFK 311951Z 04010KT 10SM FEW025 OVC046 12/04 A2991 RMK AO2 SLP126 T01220044
Loading
Personal Weather Stations






























Interactive Weather Map
Tropical Storm Tracking
New forecast layout! Learn more

10-Day Weather Forecast

Advertisements
Track Severe Weather on mobile